sensor_id;sensor_type;location;lat;lon;timestamp;P1;durP1;ratioP1;P2;durP2;ratioP2
9771;SDS011;4925;52.588;13.370;2023-05-10T00:01:50;3.60;;;3.30;;
9771;SDS011;4925;52.588;13.370;2023-05-10T00:04:17;5.40;;;3.73;;
9771;SDS011;4925;52.588;13.370;2023-05-10T00:06:42;6.17;;;4.10;;
9771;SDS011;4925;52.588;13.370;2023-05-10T00:09:08;8.53;;;4.27;;
9771;SDS011;4925;52.588;13.370;2023-05-10T00:11:33;4.23;;;3.57;;
9771;SDS011;4925;52.588;13.370;2023-05-10T00:13:59;6.80;;;3.97;;
9771;SDS011;4925;52.588;13.370;2023-05-10T00:16:25;4.07;;;3.77;;
9771;SDS011;4925;52.588;13.370;2023-05-10T00:18:51;4.33;;;3.73;;
9771;SDS011;4925;52.588;13.370;2023-05-10T00:21:16;4.70;;;4.00;;
9771;SDS011;4925;52.588;13.370;2023-05-10T00:23:42;5.13;;;4.13;;
9771;SDS011;4925;52.588;13.370;2023-05-10T00:26:08;5.73;;;4.40;;
9771;SDS011;4925;52.588;13.370;2023-05-10T00:28:33;4.80;;;4.30;;
9771;SDS011;4925;52.588;13.370;2023-05-10T00:30:59;5.87;;;4.83;;
9771;SDS011;4925;52.588;13.370;2023-05-10T00:33:24;5.77;;;4.17;;
9771;SDS011;4925;52.588;13.370;2023-05-10T00:35:50;5.13;;;4.03;;
9771;SDS011;4925;52.588;13.370;2023-05-10T00:38:16;6.87;;;3.77;;
9771;SDS011;4925;52.588;13.370;2023-05-10T00:40:42;5.43;;;3.80;;
9771;SDS011;4925;52.588;13.370;2023-05-10T00:43:09;4.00;;;3.60;;
9771;SDS011;4925;52.588;13.370;2023-05-10T00:45:34;6.70;;;4.37;;
9771;SDS011;4925;52.588;13.370;2023-05-10T00:48:02;7.33;;;4.37;;
9771;SDS011;4925;52.588;13.370;2023-05-10T00:50:29;6.13;;;4.37;;
9771;SDS011;4925;52.588;13.370;2023-05-10T00:52:56;5.93;;;4.17;;
9771;SDS011;4925;52.588;13.370;2023-05-10T00:55:23;4.77;;;4.17;;
9771;SDS011;4925;52.588;13.370;2023-05-10T00:57:49;4.47;;;4.07;;
9771;SDS011;4925;52.588;13.370;2023-05-10T01:00:15;6.30;;;5.03;;
9771;SDS011;4925;52.588;13.370;2023-05-10T01:02:44;5.10;;;4.63;;
9771;SDS011;4925;52.588;13.370;2023-05-10T01:05:11;6.07;;;4.20;;
9771;SDS011;4925;52.588;13.370;2023-05-10T01:07:37;6.40;;;4.20;;
9771;SDS011;4925;52.588;13.370;2023-05-10T01:10:04;4.80;;;3.93;;
9771;SDS011;4925;52.588;13.370;2023-05-10T01:12:31;5.73;;;3.97;;
9771;SDS011;4925;52.588;13.370;2023-05-10T01:14:57;4.83;;;3.97;;
9771;SDS011;4925;52.588;13.370;2023-05-10T01:17:23;5.43;;;4.63;;
9771;SDS011;4925;52.588;13.370;2023-05-10T01:19:49;7.00;;;4.30;;
9771;SDS011;4925;52.588;13.370;2023-05-10T01:35:57;8.07;;;4.63;;
9771;SDS011;4925;52.588;13.370;2023-05-10T01:38:47;4.60;;;4.20;;
9771;SDS011;4925;52.588;13.370;2023-05-10T01:41:23;6.40;;;4.17;;
9771;SDS011;4925;52.588;13.370;2023-05-10T01:47:02;5.23;;;4.60;;
9771;SDS011;4925;52.588;13.370;2023-05-10T01:49:34;6.73;;;4.27;;
9771;SDS011;4925;52.588;13.370;2023-05-10T01:52:06;5.67;;;3.90;;
9771;SDS011;4925;52.588;13.370;2023-05-10T01:54:35;6.30;;;4.30;;
9771;SDS011;4925;52.588;13.370;2023-05-10T01:57:14;9.80;;;4.97;;
9771;SDS011;4925;52.588;13.370;2023-05-10T01:59:44;5.37;;;3.93;;
9771;SDS011;4925;52.588;13.370;2023-05-10T02:02:12;5.53;;;4.53;;
9771;SDS011;4925;52.588;13.370;2023-05-10T02:04:40;6.00;;;4.40;;
9771;SDS011;4925;52.588;13.370;2023-05-10T02:07:07;5.80;;;3.93;;
9771;SDS011;4925;52.588;13.370;2023-05-10T02:09:34;5.80;;;4.03;;
9771;SDS011;4925;52.588;13.370;2023-05-10T02:12:01;4.90;;;4.40;;
9771;SDS011;4925;52.588;13.370;2023-05-10T02:14:30;8.53;;;4.00;;
9771;SDS011;4925;52.588;13.370;2023-05-10T02:17:00;10.10;;;5.00;;
9771;SDS011;4925;52.588;13.370;2023-05-10T02:19:29;7.43;;;4.60;;
9771;SDS011;4925;52.588;13.370;2023-05-10T02:21:57;7.30;;;4.30;;
9771;SDS011;4925;52.588;13.370;2023-05-10T02:24:25;5.67;;;4.10;;
9771;SDS011;4925;52.588;13.370;2023-05-10T02:26:53;6.20;;;4.30;;
9771;SDS011;4925;52.588;13.370;2023-05-10T02:29:23;4.47;;;3.97;;
9771;SDS011;4925;52.588;13.370;2023-05-10T02:31:54;6.60;;;3.63;;
9771;SDS011;4925;52.588;13.370;2023-05-10T02:34:25;5.40;;;3.73;;
9771;SDS011;4925;52.588;13.370;2023-05-10T02:36:53;4.80;;;4.40;;
9771;SDS011;4925;52.588;13.370;2023-05-10T02:39:20;6.93;;;4.17;;
9771;SDS011;4925;52.588;13.370;2023-05-10T02:41:47;4.73;;;3.53;;
9771;SDS011;4925;52.588;13.370;2023-05-10T02:44:15;5.20;;;4.07;;
9771;SDS011;4925;52.588;13.370;2023-05-10T02:46:43;6.00;;;4.03;;
9771;SDS011;4925;52.588;13.370;2023-05-10T02:49:10;5.63;;;4.33;;
9771;SDS011;4925;52.588;13.370;2023-05-10T02:51:36;6.23;;;4.30;;
9771;SDS011;4925;52.588;13.370;2023-05-10T02:54:10;7.23;;;4.17;;
9771;SDS011;4925;52.588;13.370;2023-05-10T02:56:42;7.83;;;4.53;;
9771;SDS011;4925;52.588;13.370;2023-05-10T02:59:12;6.33;;;4.37;;
9771;SDS011;4925;52.588;13.370;2023-05-10T03:01:38;5.77;;;4.50;;
9771;SDS011;4925;52.588;13.370;2023-05-10T03:04:04;9.57;;;5.03;;
9771;SDS011;4925;52.588;13.370;2023-05-10T03:06:30;7.10;;;4.53;;
9771;SDS011;4925;52.588;13.370;2023-05-10T03:08:56;7.67;;;4.50;;
9771;SDS011;4925;52.588;13.370;2023-05-10T03:17:29;7.30;;;4.07;;
9771;SDS011;4925;52.588;13.370;2023-05-10T03:20:05;4.93;;;3.40;;
9771;SDS011;4925;52.588;13.370;2023-05-10T03:22:39;11.57;;;4.50;;
9771;SDS011;4925;52.588;13.370;2023-05-10T03:25:10;5.90;;;3.63;;
9771;SDS011;4925;52.588;13.370;2023-05-10T03:27:39;6.50;;;3.70;;
9771;SDS011;4925;52.588;13.370;2023-05-10T03:30:10;9.67;;;4.07;;
9771;SDS011;4925;52.588;13.370;2023-05-10T03:32:37;3.90;;;3.50;;
9771;SDS011;4925;52.588;13.370;2023-05-10T03:35:08;7.67;;;5.03;;
9771;SDS011;4925;52.588;13.370;2023-05-10T03:37:38;7.13;;;4.00;;
9771;SDS011;4925;52.588;13.370;2023-05-10T03:40:04;7.93;;;3.90;;
9771;SDS011;4925;52.588;13.370;2023-05-10T03:42:30;6.37;;;4.20;;
9771;SDS011;4925;52.588;13.370;2023-05-10T03:44:56;9.77;;;3.83;;
9771;SDS011;4925;52.588;13.370;2023-05-10T03:47:22;10.00;;;4.07;;
9771;SDS011;4925;52.588;13.370;2023-05-10T03:49:47;8.10;;;3.97;;
9771;SDS011;4925;52.588;13.370;2023-05-10T03:52:13;13.50;;;4.77;;
9771;SDS011;4925;52.588;13.370;2023-05-10T03:54:38;7.13;;;3.80;;
9771;SDS011;4925;52.588;13.370;2023-05-10T03:57:04;6.43;;;3.73;;
9771;SDS011;4925;52.588;13.370;2023-05-10T03:59:30;6.20;;;3.77;;
9771;SDS011;4925;52.588;13.370;2023-05-10T04:01:55;5.67;;;3.83;;
9771;SDS011;4925;52.588;13.370;2023-05-10T04:04:21;6.53;;;3.67;;
9771;SDS011;4925;52.588;13.370;2023-05-10T04:06:48;6.63;;;3.77;;
9771;SDS011;4925;52.588;13.370;2023-05-10T04:09:13;5.97;;;3.93;;
9771;SDS011;4925;52.588;13.370;2023-05-10T04:11:40;4.70;;;3.73;;
9771;SDS011;4925;52.588;13.370;2023-05-10T04:14:05;4.93;;;3.70;;
9771;SDS011;4925;52.588;13.370;2023-05-10T04:16:31;4.33;;;3.50;;
9771;SDS011;4925;52.588;13.370;2023-05-10T04:18:57;7.77;;;4.10;;
9771;SDS011;4925;52.588;13.370;2023-05-10T04:21:22;4.27;;;3.73;;
9771;SDS011;4925;52.588;13.370;2023-05-10T04:23:48;3.77;;;3.47;;
9771;SDS011;4925;52.588;13.370;2023-05-10T04:26:14;6.73;;;4.63;;
9771;SDS011;4925;52.588;13.370;2023-05-10T04:28:39;5.80;;;3.50;;
9771;SDS011;4925;52.588;13.370;2023-05-10T04:31:06;5.50;;;3.77;;
9771;SDS011;4925;52.588;13.370;2023-05-10T04:33:33;5.03;;;3.40;;
9771;SDS011;4925;52.588;13.370;2023-05-10T04:35:59;5.23;;;4.03;;
9771;SDS011;4925;52.588;13.370;2023-05-10T04:38:25;6.87;;;4.33;;
9771;SDS011;4925;52.588;13.370;2023-05-10T04:40:51;5.20;;;3.37;;
9771;SDS011;4925;52.588;13.370;2023-05-10T04:43:17;8.20;;;3.87;;
9771;SDS011;4925;52.588;13.370;2023-05-10T04:45:43;5.07;;;3.30;;
9771;SDS011;4925;52.588;13.370;2023-05-10T04:48:09;4.67;;;3.63;;
9771;SDS011;4925;52.588;13.370;2023-05-10T04:50:34;5.20;;;3.37;;
9771;SDS011;4925;52.588;13.370;2023-05-10T04:53:00;6.87;;;3.60;;
9771;SDS011;4925;52.588;13.370;2023-05-10T04:55:26;8.00;;;3.53;;
9771;SDS011;4925;52.588;13.370;2023-05-10T04:57:52;4.60;;;3.40;;
9771;SDS011;4925;52.588;13.370;2023-05-10T05:00:20;8.50;;;3.80;;
9771;SDS011;4925;52.588;13.370;2023-05-10T05:02:45;11.67;;;3.77;;
9771;SDS011;4925;52.588;13.370;2023-05-10T05:05:12;6.53;;;3.43;;
9771;SDS011;4925;52.588;13.370;2023-05-10T05:07:37;3.57;;;2.63;;
9771;SDS011;4925;52.588;13.370;2023-05-10T05:10:04;4.83;;;3.07;;
9771;SDS011;4925;52.588;13.370;2023-05-10T05:12:31;4.33;;;3.23;;
9771;SDS011;4925;52.588;13.370;2023-05-10T05:14:56;4.77;;;2.97;;
9771;SDS011;4925;52.588;13.370;2023-05-10T05:17:22;4.80;;;3.03;;
9771;SDS011;4925;52.588;13.370;2023-05-10T05:19:48;6.20;;;3.33;;
9771;SDS011;4925;52.588;13.370;2023-05-10T05:22:13;4.70;;;3.00;;
9771;SDS011;4925;52.588;13.370;2023-05-10T05:24:39;8.93;;;4.00;;
9771;SDS011;4925;52.588;13.370;2023-05-10T05:27:05;4.83;;;2.97;;
9771;SDS011;4925;52.588;13.370;2023-05-10T05:29:31;4.37;;;3.33;;
9771;SDS011;4925;52.588;13.370;2023-05-10T05:31:57;5.27;;;2.50;;
9771;SDS011;4925;52.588;13.370;2023-05-10T05:34:22;4.17;;;3.10;;
9771;SDS011;4925;52.588;13.370;2023-05-10T05:36:49;4.97;;;2.93;;
9771;SDS011;4925;52.588;13.370;2023-05-10T05:39:15;5.53;;;3.17;;
9771;SDS011;4925;52.588;13.370;2023-05-10T05:41:41;5.50;;;3.27;;
9771;SDS011;4925;52.588;13.370;2023-05-10T05:44:07;3.77;;;2.80;;
9771;SDS011;4925;52.588;13.370;2023-05-10T05:46:33;3.23;;;2.53;;
9771;SDS011;4925;52.588;13.370;2023-05-10T05:48:59;5.63;;;2.63;;
9771;SDS011;4925;52.588;13.370;2023-05-10T05:51:24;4.10;;;2.90;;
9771;SDS011;4925;52.588;13.370;2023-05-10T05:53:50;4.00;;;2.37;;
9771;SDS011;4925;52.588;13.370;2023-05-10T05:56:16;5.20;;;2.73;;
9771;SDS011;4925;52.588;13.370;2023-05-10T05:58:48;3.17;;;2.30;;
9771;SDS011;4925;52.588;13.370;2023-05-10T06:01:17;11.30;;;2.97;;
9771;SDS011;4925;52.588;13.370;2023-05-10T06:03:43;8.20;;;3.40;;
9771;SDS011;4925;52.588;13.370;2023-05-10T06:06:09;3.70;;;2.73;;
9771;SDS011;4925;52.588;13.370;2023-05-10T06:08:34;2.90;;;2.37;;
9771;SDS011;4925;52.588;13.370;2023-05-10T06:11:00;4.93;;;2.40;;
9771;SDS011;4925;52.588;13.370;2023-05-10T06:13:26;3.30;;;2.73;;
9771;SDS011;4925;52.588;13.370;2023-05-10T06:15:59;3.20;;;2.30;;
9771;SDS011;4925;52.588;13.370;2023-05-10T06:18:26;5.37;;;3.00;;
9771;SDS011;4925;52.588;13.370;2023-05-10T06:20:51;3.77;;;2.40;;
9771;SDS011;4925;52.588;13.370;2023-05-10T06:23:17;4.17;;;2.83;;
9771;SDS011;4925;52.588;13.370;2023-05-10T06:25:43;2.83;;;2.20;;
9771;SDS011;4925;52.588;13.370;2023-05-10T06:28:08;6.90;;;2.10;;
9771;SDS011;4925;52.588;13.370;2023-05-10T06:30:35;3.23;;;2.40;;
9771;SDS011;4925;52.588;13.370;2023-05-10T06:33:02;5.40;;;2.10;;
9771;SDS011;4925;52.588;13.370;2023-05-10T06:35:28;10.23;;;2.43;;
9771;SDS011;4925;52.588;13.370;2023-05-10T06:37:54;5.40;;;2.47;;
9771;SDS011;4925;52.588;13.370;2023-05-10T06:40:20;2.67;;;1.80;;
9771;SDS011;4925;52.588;13.370;2023-05-10T06:42:46;5.97;;;2.20;;
9771;SDS011;4925;52.588;13.370;2023-05-10T06:45:13;4.00;;;1.90;;
9771;SDS011;4925;52.588;13.370;2023-05-10T06:47:40;8.83;;;3.20;;
9771;SDS011;4925;52.588;13.370;2023-05-10T06:50:06;6.77;;;2.73;;
9771;SDS011;4925;52.588;13.370;2023-05-10T06:52:33;4.80;;;2.30;;
9771;SDS011;4925;52.588;13.370;2023-05-10T06:54:59;2.40;;;2.00;;
9771;SDS011;4925;52.588;13.370;2023-05-10T06:57:25;4.80;;;1.83;;
9771;SDS011;4925;52.588;13.370;2023-05-10T06:59:51;2.37;;;1.90;;
9771;SDS011;4925;52.588;13.370;2023-05-10T07:02:17;3.73;;;2.07;;
9771;SDS011;4925;52.588;13.370;2023-05-10T07:04:43;2.33;;;2.00;;
9771;SDS011;4925;52.588;13.370;2023-05-10T07:07:09;4.73;;;2.10;;
9771;SDS011;4925;52.588;13.370;2023-05-10T07:09:34;7.07;;;2.60;;
9771;SDS011;4925;52.588;13.370;2023-05-10T07:12:00;4.40;;;2.67;;
9771;SDS011;4925;52.588;13.370;2023-05-10T07:14:26;2.67;;;2.17;;
9771;SDS011;4925;52.588;13.370;2023-05-10T07:16:52;2.83;;;2.17;;
9771;SDS011;4925;52.588;13.370;2023-05-10T07:19:18;3.40;;;2.20;;
9771;SDS011;4925;52.588;13.370;2023-05-10T07:21:44;6.13;;;2.17;;
9771;SDS011;4925;52.588;13.370;2023-05-10T07:24:10;3.53;;;2.27;;
9771;SDS011;4925;52.588;13.370;2023-05-10T07:26:36;2.87;;;1.87;;
9771;SDS011;4925;52.588;13.370;2023-05-10T07:29:01;4.17;;;2.30;;
9771;SDS011;4925;52.588;13.370;2023-05-10T07:31:27;2.40;;;2.00;;
9771;SDS011;4925;52.588;13.370;2023-05-10T07:33:53;4.60;;;2.40;;
9771;SDS011;4925;52.588;13.370;2023-05-10T07:36:19;4.37;;;2.40;;
9771;SDS011;4925;52.588;13.370;2023-05-10T07:38:45;4.83;;;2.40;;
9771;SDS011;4925;52.588;13.370;2023-05-10T07:41:13;3.23;;;2.23;;
9771;SDS011;4925;52.588;13.370;2023-05-10T07:43:39;2.37;;;1.70;;
9771;SDS011;4925;52.588;13.370;2023-05-10T07:46:05;6.10;;;2.70;;
9771;SDS011;4925;52.588;13.370;2023-05-10T07:48:31;2.63;;;2.37;;
9771;SDS011;4925;52.588;13.370;2023-05-10T07:50:56;2.43;;;2.23;;
9771;SDS011;4925;52.588;13.370;2023-05-10T07:53:22;3.90;;;2.47;;
9771;SDS011;4925;52.588;13.370;2023-05-10T07:55:51;3.97;;;1.77;;
9771;SDS011;4925;52.588;13.370;2023-05-10T07:58:19;4.43;;;2.57;;
9771;SDS011;4925;52.588;13.370;2023-05-10T08:00:45;4.70;;;2.20;;
9771;SDS011;4925;52.588;13.370;2023-05-10T08:03:11;2.63;;;2.27;;
9771;SDS011;4925;52.588;13.370;2023-05-10T08:05:36;3.73;;;2.47;;
9771;SDS011;4925;52.588;13.370;2023-05-10T08:08:02;3.72;;;2.30;;
9771;SDS011;4925;52.588;13.370;2023-05-10T08:10:28;2.35;;;2.15;;
9771;SDS011;4925;52.588;13.370;2023-05-10T08:12:53;4.97;;;2.60;;
9771;SDS011;4925;52.588;13.370;2023-05-10T08:15:19;6.68;;;2.80;;
9771;SDS011;4925;52.588;13.370;2023-05-10T08:17:45;5.70;;;2.40;;
9771;SDS011;4925;52.588;13.370;2023-05-10T08:20:11;3.25;;;2.35;;
9771;SDS011;4925;52.588;13.370;2023-05-10T08:22:37;4.70;;;2.50;;
9771;SDS011;4925;52.588;13.370;2023-05-10T08:25:03;5.88;;;2.20;;
9771;SDS011;4925;52.588;13.370;2023-05-10T08:27:30;5.83;;;2.70;;
9771;SDS011;4925;52.588;13.370;2023-05-10T08:29:55;6.57;;;2.55;;
9771;SDS011;4925;52.588;13.370;2023-05-10T08:32:21;8.05;;;2.30;;
9771;SDS011;4925;52.588;13.370;2023-05-10T08:34:47;4.38;;;2.40;;
9771;SDS011;4925;52.588;13.370;2023-05-10T08:37:12;2.72;;;2.08;;
9771;SDS011;4925;52.588;13.370;2023-05-10T08:39:38;3.50;;;2.15;;
9771;SDS011;4925;52.588;13.370;2023-05-10T08:42:04;5.00;;;2.20;;
9771;SDS011;4925;52.588;13.370;2023-05-10T08:44:34;5.20;;;3.13;;
9771;SDS011;4925;52.588;13.370;2023-05-10T08:47:06;4.85;;;2.50;;
9771;SDS011;4925;52.588;13.370;2023-05-10T08:49:32;6.68;;;2.35;;
9771;SDS011;4925;52.588;13.370;2023-05-10T08:51:59;6.75;;;2.72;;
9771;SDS011;4925;52.588;13.370;2023-05-10T08:54:29;3.08;;;2.72;;
9771;SDS011;4925;52.588;13.370;2023-05-10T08:56:56;4.28;;;2.53;;
9771;SDS011;4925;52.588;13.370;2023-05-10T08:59:22;3.17;;;2.13;;
9771;SDS011;4925;52.588;13.370;2023-05-10T09:01:48;5.47;;;2.70;;
9771;SDS011;4925;52.588;13.370;2023-05-10T09:04:15;15.00;;;6.10;;
9771;SDS011;4925;52.588;13.370;2023-05-10T09:06:41;6.80;;;3.13;;
9771;SDS011;4925;52.588;13.370;2023-05-10T09:09:06;11.15;;;5.78;;
9771;SDS011;4925;52.588;13.370;2023-05-10T09:11:32;2.78;;;1.98;;
9771;SDS011;4925;52.588;13.370;2023-05-10T09:13:58;7.05;;;2.40;;
9771;SDS011;4925;52.588;13.370;2023-05-10T09:16:24;2.40;;;2.20;;
9771;SDS011;4925;52.588;13.370;2023-05-10T09:18:49;3.47;;;2.25;;
9771;SDS011;4925;52.588;13.370;2023-05-10T09:21:15;2.00;;;1.90;;
9771;SDS011;4925;52.588;13.370;2023-05-10T09:23:47;3.15;;;2.15;;
9771;SDS011;4925;52.588;13.370;2023-05-10T09:26:15;2.88;;;2.13;;
9771;SDS011;4925;52.588;13.370;2023-05-10T09:28:50;2.17;;;1.98;;
9771;SDS011;4925;52.588;13.370;2023-05-10T09:31:18;14.07;;;2.40;;
9771;SDS011;4925;52.588;13.370;2023-05-10T09:33:47;3.42;;;3.08;;
9771;SDS011;4925;52.588;13.370;2023-05-10T09:36:14;5.63;;;3.78;;
9771;SDS011;4925;52.588;13.370;2023-05-10T09:38:47;14.32;;;11.77;;
9771;SDS011;4925;52.588;13.370;2023-05-10T09:41:17;2.38;;;2.22;;
9771;SDS011;4925;52.588;13.370;2023-05-10T09:43:46;2.85;;;2.25;;
9771;SDS011;4925;52.588;13.370;2023-05-10T09:46:13;4.53;;;2.22;;
9771;SDS011;4925;52.588;13.370;2023-05-10T09:48:41;7.20;;;2.67;;
9771;SDS011;4925;52.588;13.370;2023-05-10T09:51:08;7.97;;;2.53;;
9771;SDS011;4925;52.588;13.370;2023-05-10T09:53:34;5.82;;;2.20;;
9771;SDS011;4925;52.588;13.370;2023-05-10T09:56:00;5.63;;;2.60;;
9771;SDS011;4925;52.588;13.370;2023-05-10T09:58:25;6.00;;;3.08;;
9771;SDS011;4925;52.588;13.370;2023-05-10T10:00:51;2.65;;;2.38;;
9771;SDS011;4925;52.588;13.370;2023-05-10T10:03:19;5.72;;;2.50;;
9771;SDS011;4925;52.588;13.370;2023-05-10T10:05:46;3.33;;;2.40;;
9771;SDS011;4925;52.588;13.370;2023-05-10T10:08:13;9.75;;;2.42;;
9771;SDS011;4925;52.588;13.370;2023-05-10T10:10:39;5.18;;;2.50;;
9771;SDS011;4925;52.588;13.370;2023-05-10T10:13:05;3.78;;;3.00;;
9771;SDS011;4925;52.588;13.370;2023-05-10T10:15:32;3.75;;;2.00;;
9771;SDS011;4925;52.588;13.370;2023-05-10T10:17:58;7.63;;;2.60;;
9771;SDS011;4925;52.588;13.370;2023-05-10T10:20:25;2.63;;;2.42;;
9771;SDS011;4925;52.588;13.370;2023-05-10T10:22:52;3.55;;;2.58;;
9771;SDS011;4925;52.588;13.370;2023-05-10T10:25:18;10.60;;;3.65;;
9771;SDS011;4925;52.588;13.370;2023-05-10T10:27:56;3.05;;;2.03;;
9771;SDS011;4925;52.588;13.370;2023-05-10T10:33:10;4.18;;;2.67;;
9771;SDS011;4925;52.588;13.370;2023-05-10T10:35:53;2.25;;;2.05;;
9771;SDS011;4925;52.588;13.370;2023-05-10T10:38:20;5.55;;;2.67;;
9771;SDS011;4925;52.588;13.370;2023-05-10T10:40:47;5.57;;;2.08;;
9771;SDS011;4925;52.588;13.370;2023-05-10T10:43:22;2.65;;;2.45;;
9771;SDS011;4925;52.588;13.370;2023-05-10T10:48:35;7.88;;;2.83;;
9771;SDS011;4925;52.588;13.370;2023-05-10T10:51:01;3.97;;;2.30;;
9771;SDS011;4925;52.588;13.370;2023-05-10T10:53:27;3.10;;;2.05;;
9771;SDS011;4925;52.588;13.370;2023-05-10T10:56:06;4.35;;;2.63;;
9771;SDS011;4925;52.588;13.370;2023-05-10T10:58:34;2.85;;;2.47;;
9771;SDS011;4925;52.588;13.370;2023-05-10T11:06:33;3.38;;;2.33;;
9771;SDS011;4925;52.588;13.370;2023-05-10T11:09:10;3.03;;;2.33;;
9771;SDS011;4925;52.588;13.370;2023-05-10T11:11:52;4.22;;;2.80;;
9771;SDS011;4925;52.588;13.370;2023-05-10T11:14:23;5.13;;;2.42;;
9771;SDS011;4925;52.588;13.370;2023-05-10T11:16:50;4.72;;;2.60;;
9771;SDS011;4925;52.588;13.370;2023-05-10T11:19:16;3.35;;;2.35;;
9771;SDS011;4925;52.588;13.370;2023-05-10T11:21:47;3.83;;;2.03;;
9771;SDS011;4925;52.588;13.370;2023-05-10T11:24:21;4.95;;;2.25;;
9771;SDS011;4925;52.588;13.370;2023-05-10T11:26:51;2.50;;;2.20;;
9771;SDS011;4925;52.588;13.370;2023-05-10T11:29:17;5.25;;;2.47;;
9771;SDS011;4925;52.588;13.370;2023-05-10T11:31:43;10.57;;;3.08;;
9771;SDS011;4925;52.588;13.370;2023-05-10T11:34:10;6.07;;;2.42;;
9771;SDS011;4925;52.588;13.370;2023-05-10T11:36:36;5.57;;;2.25;;
9771;SDS011;4925;52.588;13.370;2023-05-10T11:39:02;2.55;;;2.35;;
9771;SDS011;4925;52.588;13.370;2023-05-10T11:41:29;6.25;;;2.50;;
9771;SDS011;4925;52.588;13.370;2023-05-10T11:43:56;2.95;;;2.50;;
9771;SDS011;4925;52.588;13.370;2023-05-10T11:46:23;1.98;;;1.92;;
9771;SDS011;4925;52.588;13.370;2023-05-10T11:48:51;6.85;;;2.38;;
9771;SDS011;4925;52.588;13.370;2023-05-10T11:51:22;4.43;;;2.58;;
9771;SDS011;4925;52.588;13.370;2023-05-10T11:53:52;3.60;;;2.63;;
9771;SDS011;4925;52.588;13.370;2023-05-10T11:56:19;4.38;;;2.63;;
9771;SDS011;4925;52.588;13.370;2023-05-10T11:58:53;8.95;;;2.08;;
9771;SDS011;4925;52.588;13.370;2023-05-10T12:01:20;6.22;;;2.22;;
9771;SDS011;4925;52.588;13.370;2023-05-10T12:03:47;4.40;;;2.53;;
9771;SDS011;4925;52.588;13.370;2023-05-10T12:06:18;2.90;;;2.33;;
9771;SDS011;4925;52.588;13.370;2023-05-10T12:08:45;6.25;;;2.83;;
9771;SDS011;4925;52.588;13.370;2023-05-10T12:11:12;3.17;;;2.35;;
9771;SDS011;4925;52.588;13.370;2023-05-10T12:13:41;7.07;;;3.05;;
9771;SDS011;4925;52.588;13.370;2023-05-10T12:16:15;6.50;;;2.35;;
9771;SDS011;4925;52.588;13.370;2023-05-10T12:18:42;5.85;;;2.53;;
9771;SDS011;4925;52.588;13.370;2023-05-10T12:21:09;2.72;;;2.50;;
9771;SDS011;4925;52.588;13.370;2023-05-10T12:23:40;6.97;;;2.90;;
9771;SDS011;4925;52.588;13.370;2023-05-10T12:26:08;9.25;;;2.58;;
9771;SDS011;4925;52.588;13.370;2023-05-10T12:28:35;4.68;;;2.30;;
9771;SDS011;4925;52.588;13.370;2023-05-10T12:31:02;5.93;;;2.42;;
9771;SDS011;4925;52.588;13.370;2023-05-10T12:33:34;6.65;;;2.75;;
9771;SDS011;4925;52.588;13.370;2023-05-10T12:36:04;5.80;;;2.72;;
9771;SDS011;4925;52.588;13.370;2023-05-10T12:38:34;4.70;;;2.15;;
9771;SDS011;4925;52.588;13.370;2023-05-10T12:41:05;2.58;;;2.30;;
9771;SDS011;4925;52.588;13.370;2023-05-10T12:43:31;2.97;;;2.35;;
9771;SDS011;4925;52.588;13.370;2023-05-10T12:45:58;5.68;;;2.63;;
9771;SDS011;4925;52.588;13.370;2023-05-10T12:48:28;3.40;;;2.28;;
9771;SDS011;4925;52.588;13.370;2023-05-10T12:50:56;5.50;;;2.25;;
9771;SDS011;4925;52.588;13.370;2023-05-10T12:53:21;3.47;;;2.25;;
9771;SDS011;4925;52.588;13.370;2023-05-10T12:55:47;6.85;;;2.53;;
9771;SDS011;4925;52.588;13.370;2023-05-10T12:58:13;2.88;;;2.25;;
9771;SDS011;4925;52.588;13.370;2023-05-10T13:00:39;6.43;;;2.50;;
9771;SDS011;4925;52.588;13.370;2023-05-10T13:03:05;2.53;;;2.15;;
9771;SDS011;4925;52.588;13.370;2023-05-10T13:05:31;6.13;;;2.20;;
9771;SDS011;4925;52.588;13.370;2023-05-10T13:07:57;4.13;;;2.45;;
9771;SDS011;4925;52.588;13.370;2023-05-10T13:10:23;4.65;;;2.42;;
9771;SDS011;4925;52.588;13.370;2023-05-10T13:12:50;11.40;;;2.95;;
9771;SDS011;4925;52.588;13.370;2023-05-10T13:15:16;3.90;;;2.35;;
9771;SDS011;4925;52.588;13.370;2023-05-10T13:17:42;2.65;;;2.20;;
9771;SDS011;4925;52.588;13.370;2023-05-10T13:20:08;3.70;;;2.10;;
9771;SDS011;4925;52.588;13.370;2023-05-10T13:22:34;2.47;;;2.30;;
9771;SDS011;4925;52.588;13.370;2023-05-10T13:25:00;2.03;;;1.88;;
9771;SDS011;4925;52.588;13.370;2023-05-10T13:27:26;3.95;;;2.58;;
9771;SDS011;4925;52.588;13.370;2023-05-10T13:29:52;3.22;;;1.95;;
9771;SDS011;4925;52.588;13.370;2023-05-10T13:32:18;3.70;;;2.30;;
9771;SDS011;4925;52.588;13.370;2023-05-10T13:34:44;2.38;;;2.25;;
9771;SDS011;4925;52.588;13.370;2023-05-10T13:37:09;2.90;;;2.60;;
9771;SDS011;4925;52.588;13.370;2023-05-10T13:39:35;3.42;;;2.38;;
9771;SDS011;4925;52.588;13.370;2023-05-10T13:42:02;2.65;;;2.05;;
9771;SDS011;4925;52.588;13.370;2023-05-10T13:44:28;5.20;;;2.28;;
9771;SDS011;4925;52.588;13.370;2023-05-10T13:46:54;3.10;;;2.40;;
9771;SDS011;4925;52.588;13.370;2023-05-10T13:49:20;4.50;;;2.20;;
9771;SDS011;4925;52.588;13.370;2023-05-10T13:51:47;2.42;;;2.22;;
9771;SDS011;4925;52.588;13.370;2023-05-10T13:54:12;3.92;;;2.53;;
9771;SDS011;4925;52.588;13.370;2023-05-10T13:56:38;2.60;;;2.30;;
9771;SDS011;4925;52.588;13.370;2023-05-10T13:59:05;4.43;;;1.92;;
9771;SDS011;4925;52.588;13.370;2023-05-10T14:01:31;7.35;;;2.55;;
9771;SDS011;4925;52.588;13.370;2023-05-10T14:03:56;4.97;;;2.47;;
9771;SDS011;4925;52.588;13.370;2023-05-10T14:06:22;2.30;;;2.13;;
9771;SDS011;4925;52.588;13.370;2023-05-10T14:08:48;3.22;;;2.00;;
9771;SDS011;4925;52.588;13.370;2023-05-10T14:11:13;3.33;;;2.25;;
9771;SDS011;4925;52.588;13.370;2023-05-10T14:13:39;3.95;;;2.20;;
9771;SDS011;4925;52.588;13.370;2023-05-10T14:16:05;2.38;;;2.17;;
9771;SDS011;4925;52.588;13.370;2023-05-10T14:18:31;2.22;;;2.13;;
9771;SDS011;4925;52.588;13.370;2023-05-10T14:20:56;3.78;;;2.38;;
9771;SDS011;4925;52.588;13.370;2023-05-10T14:23:22;3.03;;;2.42;;
9771;SDS011;4925;52.588;13.370;2023-05-10T14:25:51;2.17;;;2.08;;
9771;SDS011;4925;52.588;13.370;2023-05-10T14:28:17;4.22;;;2.47;;
9771;SDS011;4925;52.588;13.370;2023-05-10T14:30:43;3.53;;;2.20;;
9771;SDS011;4925;52.588;13.370;2023-05-10T14:33:09;3.85;;;2.42;;
9771;SDS011;4925;52.588;13.370;2023-05-10T14:35:35;4.13;;;2.05;;
9771;SDS011;4925;52.588;13.370;2023-05-10T14:38:01;2.53;;;2.33;;
9771;SDS011;4925;52.588;13.370;2023-05-10T14:40:28;3.88;;;2.00;;
9771;SDS011;4925;52.588;13.370;2023-05-10T14:42:54;4.57;;;2.50;;
9771;SDS011;4925;52.588;13.370;2023-05-10T14:45:21;2.15;;;2.05;;
9771;SDS011;4925;52.588;13.370;2023-05-10T14:47:48;2.88;;;2.00;;
9771;SDS011;4925;52.588;13.370;2023-05-10T14:50:14;4.10;;;2.25;;
9771;SDS011;4925;52.588;13.370;2023-05-10T14:52:41;2.40;;;2.20;;
9771;SDS011;4925;52.588;13.370;2023-05-10T14:55:07;5.22;;;2.92;;
9771;SDS011;4925;52.588;13.370;2023-05-10T14:57:33;1.95;;;1.85;;
9771;SDS011;4925;52.588;13.370;2023-05-10T14:59:59;2.70;;;2.20;;
9771;SDS011;4925;52.588;13.370;2023-05-10T15:02:25;2.38;;;2.28;;
9771;SDS011;4925;52.588;13.370;2023-05-10T15:04:50;5.70;;;2.35;;
9771;SDS011;4925;52.588;13.370;2023-05-10T15:07:16;3.97;;;2.00;;
9771;SDS011;4925;52.588;13.370;2023-05-10T15:09:43;2.50;;;2.17;;
9771;SDS011;4925;52.588;13.370;2023-05-10T15:12:09;2.50;;;2.08;;
9771;SDS011;4925;52.588;13.370;2023-05-10T15:14:35;3.42;;;1.90;;
9771;SDS011;4925;52.588;13.370;2023-05-10T15:17:01;3.42;;;2.03;;
9771;SDS011;4925;52.588;13.370;2023-05-10T15:19:27;2.30;;;2.10;;
9771;SDS011;4925;52.588;13.370;2023-05-10T15:21:54;4.90;;;2.45;;
9771;SDS011;4925;52.588;13.370;2023-05-10T15:24:20;5.90;;;2.30;;
9771;SDS011;4925;52.588;13.370;2023-05-10T15:26:46;2.50;;;2.30;;
9771;SDS011;4925;52.588;13.370;2023-05-10T15:29:12;8.05;;;2.50;;
9771;SDS011;4925;52.588;13.370;2023-05-10T15:31:44;6.97;;;2.38;;
9771;SDS011;4925;52.588;13.370;2023-05-10T15:34:10;3.65;;;2.10;;